createdAt,value
2022-12-03T00:02:08.207Z,19.47
2022-12-03T00:04:33.782Z,19.46
2022-12-03T00:06:59.385Z,19.47
2022-12-03T00:09:24.932Z,19.47
2022-12-03T00:11:50.479Z,19.46
2022-12-03T00:14:16.052Z,19.47
2022-12-03T00:16:41.629Z,19.46
2022-12-03T00:19:07.219Z,19.45
2022-12-03T00:21:33.179Z,19.46
2022-12-03T00:23:58.720Z,19.45
2022-12-03T00:26:24.310Z,19.46
2022-12-03T00:28:49.864Z,19.45
2022-12-03T00:31:15.460Z,19.45
2022-12-03T00:33:41.057Z,19.45
2022-12-03T00:36:06.725Z,19.45
2022-12-03T00:38:32.263Z,19.45
2022-12-03T00:40:57.833Z,19.45
2022-12-03T00:43:23.384Z,19.46
2022-12-03T00:45:48.932Z,19.44
2022-12-03T00:48:14.468Z,19.45
2022-12-03T00:50:40.019Z,19.45
2022-12-03T00:53:05.559Z,19.45
2022-12-03T00:55:31.110Z,19.45
2022-12-03T00:57:56.653Z,19.45
2022-12-03T01:00:24.061Z,19.45
2022-12-03T01:02:50.848Z,19.44
2022-12-03T01:05:16.785Z,19.43
2022-12-03T01:07:42.468Z,19.44
2022-12-03T01:10:08.270Z,19.44
2022-12-03T01:12:33.815Z,19.44
2022-12-03T01:14:59.383Z,19.43
2022-12-03T01:17:24.920Z,19.44
2022-12-03T01:19:51.769Z,19.44
2022-12-03T01:22:17.572Z,19.43
2022-12-03T01:24:43.120Z,19.44
2022-12-03T01:27:08.658Z,19.44
2022-12-03T01:29:34.208Z,19.44
2022-12-03T01:32:19.916Z,19.44
2022-12-03T01:34:46.367Z,19.44
2022-12-03T01:37:12.181Z,19.43
2022-12-03T01:39:37.740Z,19.43
2022-12-03T01:42:03.287Z,19.43
2022-12-03T01:44:30.472Z,19.42
2022-12-03T01:46:56.884Z,19.44
2022-12-03T01:49:23.093Z,19.43
2022-12-03T01:51:48.925Z,19.43
2022-12-03T01:54:16.611Z,19.42
2022-12-03T01:56:42.183Z,19.42
2022-12-03T01:59:08.343Z,19.42
2022-12-03T02:01:33.921Z,19.42
2022-12-03T02:03:59.557Z,19.42
2022-12-03T02:06:25.172Z,19.42
2022-12-03T02:08:57.876Z,19.41
2022-12-03T02:11:26.269Z,19.43
2022-12-03T02:13:52.730Z,19.42
2022-12-03T02:16:18.329Z,19.42
2022-12-03T02:18:43.889Z,19.42
2022-12-03T02:21:29.328Z,19.41
2022-12-03T02:24:01.408Z,19.42
2022-12-03T02:26:27.000Z,19.41
2022-12-03T02:28:52.542Z,19.41
2022-12-03T02:31:18.138Z,19.41
2022-12-03T02:33:44.211Z,19.42
2022-12-03T02:36:09.759Z,19.41
2022-12-03T02:38:35.296Z,19.41
2022-12-03T02:41:03.999Z,19.40
2022-12-03T02:43:29.536Z,19.40
2022-12-03T02:45:55.740Z,19.41
2022-12-03T02:48:29.389Z,19.41
2022-12-03T02:50:55.595Z,19.40
2022-12-03T02:53:23.300Z,19.40
2022-12-03T02:55:49.033Z,19.40
2022-12-03T02:58:14.575Z,19.42
2022-12-03T03:00:40.374Z,19.39
2022-12-03T03:03:05.970Z,19.39
2022-12-03T03:05:31.528Z,19.40
2022-12-03T03:07:58.324Z,19.40
2022-12-03T03:10:24.300Z,19.40
2022-12-03T03:12:50.479Z,19.40
2022-12-03T03:15:16.020Z,19.40
2022-12-03T03:17:41.675Z,19.39
2022-12-03T03:20:08.409Z,19.40
2022-12-03T03:22:34.782Z,19.39
2022-12-03T03:25:00.338Z,19.40
2022-12-03T03:27:26.227Z,19.40
2022-12-03T03:29:51.765Z,19.40
2022-12-03T03:32:17.326Z,19.40
2022-12-03T03:34:42.887Z,19.40
2022-12-03T03:37:08.449Z,19.39
2022-12-03T03:39:34.504Z,19.39
2022-12-03T03:42:00.084Z,19.39
2022-12-03T03:44:25.630Z,19.39
2022-12-03T03:46:51.185Z,19.39
2022-12-03T03:49:16.722Z,19.39
2022-12-03T03:51:42.281Z,19.40
2022-12-03T03:54:07.845Z,19.39
2022-12-03T03:56:33.391Z,19.39
2022-12-03T03:58:59.032Z,19.40
2022-12-03T04:01:24.696Z,19.39
2022-12-03T04:03:51.684Z,19.39
2022-12-03T04:06:17.245Z,19.40
2022-12-03T04:08:42.804Z,19.39
2022-12-03T04:11:28.377Z,19.37
2022-12-03T04:13:53.930Z,19.39
2022-12-03T04:16:19.555Z,19.38
2022-12-03T04:18:45.164Z,19.38
2022-12-03T04:21:32.613Z,19.38
2022-12-03T04:23:58.173Z,19.38
2022-12-03T04:26:43.648Z,19.37
2022-12-03T04:29:09.234Z,19.37
2022-12-03T04:31:54.704Z,19.38
2022-12-03T04:34:40.191Z,19.38
2022-12-03T04:37:05.775Z,19.37
2022-12-03T04:39:31.320Z,19.38
2022-12-03T04:41:56.864Z,19.38
2022-12-03T04:44:37.423Z,19.38
2022-12-03T04:47:05.472Z,19.38
2022-12-03T04:49:31.131Z,19.38
2022-12-03T04:51:56.679Z,19.38
2022-12-03T04:54:22.321Z,19.37
2022-12-03T04:56:47.864Z,19.37
2022-12-03T04:59:16.288Z,19.37
2022-12-03T05:01:42.415Z,19.36
2022-12-03T05:04:08.005Z,19.36
2022-12-03T05:06:33.548Z,19.36
2022-12-03T05:08:59.101Z,19.37
2022-12-03T05:11:24.646Z,19.37
2022-12-03T05:13:51.616Z,19.36
2022-12-03T05:16:17.342Z,19.36
2022-12-03T05:18:42.968Z,19.37
2022-12-03T05:21:08.523Z,19.36
2022-12-03T05:23:34.077Z,19.37
2022-12-03T05:25:59.625Z,19.37
2022-12-03T05:28:25.179Z,19.37
2022-12-03T05:30:50.968Z,19.36
2022-12-03T05:33:16.631Z,19.37
2022-12-03T05:35:42.207Z,19.36
2022-12-03T05:38:07.743Z,19.36
2022-12-03T05:40:33.281Z,19.37
2022-12-03T05:43:00.912Z,19.36
2022-12-03T05:45:27.295Z,19.36
2022-12-03T05:47:53.320Z,19.36
2022-12-03T05:50:19.244Z,19.36
2022-12-03T05:52:44.803Z,19.36
2022-12-03T05:55:11.019Z,19.36
2022-12-03T05:57:36.647Z,19.36
2022-12-03T06:00:03.016Z,19.35
2022-12-03T06:02:28.760Z,19.35
2022-12-03T06:04:54.621Z,19.36
2022-12-03T06:07:20.390Z,19.36
2022-12-03T06:09:45.941Z,19.36
2022-12-03T06:12:11.597Z,19.35
2022-12-03T06:14:37.148Z,19.35
2022-12-03T06:17:03.916Z,19.35
2022-12-03T06:19:29.573Z,19.35
2022-12-03T06:21:55.120Z,19.36
2022-12-03T06:24:20.677Z,19.35
2022-12-03T06:26:46.228Z,19.35
2022-12-03T06:29:11.779Z,19.35
2022-12-03T06:31:37.494Z,19.34
2022-12-03T06:34:03.109Z,19.35
2022-12-03T06:36:28.651Z,19.34
2022-12-03T06:38:54.194Z,19.34
2022-12-03T06:41:19.817Z,19.34
2022-12-03T06:43:45.375Z,19.34
2022-12-03T06:46:10.934Z,19.34
2022-12-03T06:48:36.534Z,19.34
2022-12-03T06:51:02.074Z,19.34
2022-12-03T06:53:27.616Z,19.35
2022-12-03T06:55:53.164Z,19.34
2022-12-03T06:58:18.702Z,19.34
2022-12-03T07:00:44.254Z,19.34
2022-12-03T07:03:09.844Z,19.35
2022-12-03T07:05:35.422Z,19.35
2022-12-03T07:08:01.006Z,19.34
2022-12-03T07:10:26.600Z,19.35
2022-12-03T07:12:52.148Z,19.35
2022-12-03T07:15:17.860Z,19.34
2022-12-03T07:17:43.469Z,19.34
2022-12-03T07:20:09.107Z,19.33
2022-12-03T07:22:34.654Z,19.34
2022-12-03T07:25:00.219Z,19.33
2022-12-03T07:27:25.767Z,19.33
2022-12-03T07:29:51.320Z,19.32
2022-12-03T07:32:16.861Z,19.34
2022-12-03T07:34:42.412Z,19.33
2022-12-03T07:37:07.948Z,19.33
2022-12-03T07:39:33.573Z,19.34
2022-12-03T07:41:59.111Z,19.33
2022-12-03T07:44:24.943Z,19.33
2022-12-03T07:46:50.553Z,19.32
2022-12-03T07:49:16.150Z,19.33
2022-12-03T07:55:11.994Z,19.33
2022-12-03T07:57:37.540Z,19.33
2022-12-03T08:00:04.525Z,19.32
2022-12-03T08:02:30.186Z,19.33
2022-12-03T08:04:56.025Z,19.32
2022-12-03T08:07:21.789Z,19.32
2022-12-03T08:09:47.335Z,19.33
2022-12-03T08:12:15.142Z,19.33
2022-12-03T08:14:40.690Z,19.32
2022-12-03T08:17:09.470Z,19.32
2022-12-03T08:19:35.042Z,19.32
2022-12-03T08:22:01.538Z,19.31
2022-12-03T08:24:28.383Z,19.32
2022-12-03T08:26:53.923Z,19.33
2022-12-03T08:29:19.479Z,19.32
2022-12-03T08:31:46.956Z,19.32
2022-12-03T08:36:50.770Z,19.31
2022-12-03T08:39:32.771Z,19.32
2022-12-03T08:42:21.735Z,19.32
2022-12-03T08:44:47.290Z,19.31
2022-12-03T08:47:14.091Z,19.33
2022-12-03T08:49:39.688Z,19.32
2022-12-03T08:52:10.547Z,19.32
2022-12-03T08:54:36.115Z,19.30
2022-12-03T08:57:05.932Z,19.32
2022-12-03T08:59:31.516Z,19.31
2022-12-03T09:01:57.471Z,19.30
2022-12-03T09:04:25.637Z,19.32
2022-12-03T09:06:51.245Z,19.31
2022-12-03T09:09:16.790Z,19.32
2022-12-03T09:11:42.481Z,19.30
2022-12-03T09:14:08.180Z,19.31
2022-12-03T09:16:33.772Z,19.30
2022-12-03T09:18:59.411Z,19.30
2022-12-03T09:21:24.949Z,19.31
2022-12-03T09:23:50.496Z,19.31
2022-12-03T09:26:16.048Z,19.30
2022-12-03T09:28:41.586Z,19.31
2022-12-03T09:31:07.136Z,19.30
2022-12-03T09:33:32.676Z,19.30
2022-12-03T09:35:58.692Z,19.31
2022-12-03T09:38:24.349Z,19.30
2022-12-03T09:40:49.909Z,19.30
2022-12-03T09:43:15.556Z,19.30
2022-12-03T09:45:41.151Z,19.31
2022-12-03T09:48:06.718Z,19.29
2022-12-03T09:50:32.280Z,19.30
2022-12-03T09:52:58.218Z,19.29
2022-12-03T09:55:25.243Z,19.30
2022-12-03T09:57:51.420Z,19.30
2022-12-03T10:00:18.360Z,19.30
2022-12-03T10:02:44.701Z,19.30
2022-12-03T10:05:10.306Z,19.30
2022-12-03T10:07:36.008Z,19.30
2022-12-03T10:10:01.610Z,19.29
2022-12-03T10:12:27.154Z,19.29
2022-12-03T10:14:52.958Z,19.29
2022-12-03T10:17:18.694Z,19.29
2022-12-03T10:19:44.243Z,19.29
2022-12-03T10:22:09.787Z,19.28
2022-12-03T10:24:35.779Z,19.29
2022-12-03T10:27:03.405Z,19.29
2022-12-03T10:29:34.053Z,19.29
2022-12-03T10:32:01.451Z,19.29
2022-12-03T10:34:30.397Z,19.29
2022-12-03T10:37:15.875Z,19.29
2022-12-03T10:40:01.574Z,19.29
2022-12-03T10:42:28.264Z,19.29
2022-12-03T10:45:12.171Z,19.29
2022-12-03T10:47:37.813Z,19.29
2022-12-03T10:50:05.005Z,19.28
2022-12-03T10:52:30.565Z,19.28
2022-12-03T10:54:56.344Z,19.28
2022-12-03T10:57:22.068Z,19.29
2022-12-03T10:59:47.625Z,19.28
2022-12-03T11:02:21.201Z,19.28
2022-12-03T11:04:46.749Z,19.28
2022-12-03T11:07:13.733Z,19.28
2022-12-03T11:09:39.285Z,19.29
2022-12-03T11:12:05.531Z,19.29
2022-12-03T11:14:52.225Z,19.28
2022-12-03T11:17:37.834Z,19.28
2022-12-03T11:20:03.880Z,19.29
2022-12-03T11:22:38.643Z,19.27
2022-12-03T11:25:24.128Z,19.28
2022-12-03T11:28:09.598Z,19.28
2022-12-03T11:30:53.086Z,19.28
2022-12-03T11:33:20.865Z,19.28
2022-12-03T11:36:06.352Z,19.28
2022-12-03T11:38:52.941Z,19.27
2022-12-03T11:41:23.696Z,19.27
2022-12-03T11:46:27.569Z,19.28
2022-12-03T11:48:53.760Z,19.27
2022-12-03T11:51:20.101Z,19.26
2022-12-03T11:53:45.646Z,19.28
2022-12-03T11:56:15.348Z,19.28
2022-12-03T11:58:41.852Z,19.28
2022-12-03T12:01:07.648Z,19.27
2022-12-03T12:03:34.492Z,19.28
2022-12-03T12:06:01.777Z,19.27
2022-12-03T12:08:27.333Z,19.28
2022-12-03T12:10:52.875Z,19.26
2022-12-03T12:13:28.316Z,19.27
2022-12-03T12:15:54.115Z,19.27
2022-12-03T12:18:39.691Z,19.27
2022-12-03T12:21:25.118Z,19.27
2022-12-03T12:23:50.671Z,19.27
2022-12-03T12:26:16.223Z,19.27
2022-12-03T12:28:41.773Z,19.27
2022-12-03T12:31:10.901Z,19.27
2022-12-03T12:33:36.492Z,19.27
2022-12-03T12:36:07.481Z,19.27
2022-12-03T12:38:33.030Z,19.27
2022-12-03T12:40:58.584Z,19.27
2022-12-03T12:43:25.149Z,19.26
2022-12-03T12:45:52.381Z,19.26
2022-12-03T12:48:20.698Z,19.26
2022-12-03T12:50:46.859Z,19.26
2022-12-03T12:53:32.317Z,19.27
2022-12-03T12:56:01.700Z,19.26
2022-12-03T12:58:29.858Z,19.26
2022-12-03T13:00:56.959Z,19.27
2022-12-03T13:03:23.904Z,19.27
2022-12-03T13:05:49.853Z,19.26
2022-12-03T13:08:35.290Z,19.27
2022-12-03T13:11:01.038Z,19.27
2022-12-03T13:13:29.595Z,19.26
2022-12-03T13:18:46.225Z,19.27
2022-12-03T13:21:13.047Z,19.25
2022-12-03T13:23:38.788Z,19.26
2022-12-03T13:26:21.334Z,19.27
2022-12-03T13:28:50.705Z,19.27
2022-12-03T13:31:25.010Z,19.26
2022-12-03T13:33:50.780Z,19.26
2022-12-03T13:36:16.325Z,19.26
2022-12-03T13:38:42.432Z,19.26
2022-12-03T13:41:28.269Z,19.25
2022-12-03T13:43:53.817Z,19.25
2022-12-03T13:46:19.423Z,19.27
2022-12-03T13:48:45.095Z,19.26
2022-12-03T13:51:13.414Z,19.26
2022-12-03T13:53:39.327Z,19.26
2022-12-03T13:56:21.584Z,19.27
2022-12-03T13:58:47.147Z,19.25
2022-12-03T14:01:12.854Z,19.25
2022-12-03T14:03:38.508Z,19.26
2022-12-03T14:06:04.046Z,19.25
2022-12-03T14:08:29.595Z,19.25
2022-12-03T14:11:00.198Z,19.26
2022-12-03T14:13:26.341Z,19.25
2022-12-03T14:15:51.886Z,19.25
2022-12-03T14:18:17.433Z,19.25
2022-12-03T14:20:42.980Z,19.25
2022-12-03T14:23:08.531Z,19.25
2022-12-03T14:25:34.075Z,19.25
2022-12-03T14:27:59.979Z,19.25
2022-12-03T14:30:25.607Z,19.25
2022-12-03T14:32:51.148Z,19.25
2022-12-03T14:35:16.708Z,19.25
2022-12-03T14:37:42.253Z,19.25
2022-12-03T14:40:08.252Z,19.26
2022-12-03T14:42:34.045Z,19.25
2022-12-03T14:44:59.603Z,19.24
2022-12-03T14:47:25.148Z,19.25
2022-12-03T14:49:50.831Z,19.24
2022-12-03T14:52:16.809Z,19.24
2022-12-03T14:54:42.901Z,19.25
2022-12-03T14:57:09.037Z,19.26
2022-12-03T14:59:34.594Z,19.24
2022-12-03T15:02:00.274Z,19.25
2022-12-03T15:04:25.920Z,19.24
2022-12-03T15:06:51.474Z,19.25
2022-12-03T15:09:17.020Z,19.24
2022-12-03T15:11:46.128Z,19.24
2022-12-03T15:14:12.253Z,19.25
2022-12-03T15:16:37.900Z,19.23
2022-12-03T15:19:03.497Z,19.24
2022-12-03T15:21:31.889Z,19.25
2022-12-03T15:23:58.087Z,19.24
2022-12-03T15:26:23.631Z,19.24
2022-12-03T15:28:49.193Z,19.24
2022-12-03T15:31:14.765Z,19.24
2022-12-03T15:33:40.354Z,19.25
2022-12-03T15:36:06.077Z,19.23
2022-12-03T15:38:31.621Z,19.25
2022-12-03T15:40:57.313Z,19.23
2022-12-03T15:43:22.855Z,19.23
2022-12-03T15:45:48.463Z,19.24
2022-12-03T15:48:14.046Z,19.23
2022-12-03T15:50:40.443Z,19.24
2022-12-03T15:53:06.102Z,19.24
2022-12-03T15:55:31.656Z,19.24
2022-12-03T15:57:57.201Z,19.25
2022-12-03T16:00:22.759Z,19.23
2022-12-03T16:02:52.655Z,19.25
2022-12-03T16:05:18.728Z,19.25
2022-12-03T16:07:44.310Z,19.24
2022-12-03T16:10:10.285Z,19.24
2022-12-03T16:12:35.833Z,19.24
2022-12-03T16:15:01.396Z,19.25
2022-12-03T16:17:26.938Z,19.24
2022-12-03T16:19:52.858Z,19.23
2022-12-03T16:22:18.663Z,19.23
2022-12-03T16:24:44.220Z,19.22
2022-12-03T16:27:09.771Z,19.23
2022-12-03T16:29:35.328Z,19.24
2022-12-03T16:32:00.992Z,19.23
2022-12-03T16:34:26.545Z,19.23
2022-12-03T16:36:52.090Z,19.24
2022-12-03T16:39:18.217Z,19.25
2022-12-03T16:41:43.756Z,19.23
2022-12-03T16:44:19.206Z,19.24
2022-12-03T16:46:45.279Z,19.23
2022-12-03T16:49:10.862Z,19.22
2022-12-03T16:51:36.410Z,19.23
2022-12-03T16:54:01.969Z,19.23
2022-12-03T16:56:27.520Z,19.23
2022-12-03T16:58:53.073Z,19.23
2022-12-03T17:01:18.709Z,19.23
2022-12-03T17:03:44.368Z,19.22
2022-12-03T17:06:09.913Z,19.23
2022-12-03T17:08:35.483Z,19.22
2022-12-03T17:11:01.085Z,19.23
2022-12-03T17:13:26.801Z,19.23
2022-12-03T17:15:52.383Z,19.22
2022-12-03T17:18:17.997Z,19.24
2022-12-03T17:20:43.545Z,19.23
2022-12-03T17:23:09.107Z,19.22
2022-12-03T17:25:34.704Z,19.22
2022-12-03T17:28:00.460Z,19.23
2022-12-03T17:30:26.017Z,19.22
2022-12-03T17:32:51.574Z,19.22
2022-12-03T17:35:17.233Z,19.22
2022-12-03T17:37:42.779Z,19.22
2022-12-03T17:40:09.028Z,19.22
2022-12-03T17:42:34.597Z,19.22
2022-12-03T17:45:00.160Z,19.21
2022-12-03T17:47:25.722Z,19.21
2022-12-03T17:49:51.513Z,19.22
2022-12-03T17:52:17.304Z,19.22
2022-12-03T17:55:08.939Z,19.22
2022-12-03T17:57:28.370Z,19.22
2022-12-03T17:59:54.161Z,19.22
2022-12-03T18:02:19.955Z,19.22
2022-12-03T18:04:45.526Z,19.21
2022-12-03T18:07:11.069Z,19.22
2022-12-03T18:09:36.629Z,19.22
2022-12-03T18:12:02.187Z,19.22
2022-12-03T18:14:27.737Z,19.22
2022-12-03T18:16:53.298Z,19.22
2022-12-03T18:19:18.842Z,19.22
2022-12-03T18:21:44.397Z,19.21
2022-12-03T18:24:09.935Z,19.22
2022-12-03T18:26:35.489Z,19.22
2022-12-03T18:29:01.032Z,19.22
2022-12-03T18:31:26.667Z,19.22
2022-12-03T18:33:52.771Z,19.21
2022-12-03T18:36:20.303Z,19.22
2022-12-03T18:38:49.557Z,19.21
2022-12-03T18:41:15.110Z,19.21
2022-12-03T18:43:40.664Z,19.22
2022-12-03T18:46:25.284Z,19.22
2022-12-03T18:48:53.881Z,19.21
2022-12-03T18:51:20.565Z,19.21
2022-12-03T18:53:46.278Z,19.21
2022-12-03T18:56:11.969Z,19.21
2022-12-03T18:58:37.557Z,19.21
2022-12-03T19:01:03.585Z,19.21
2022-12-03T19:03:29.240Z,19.22
2022-12-03T19:05:54.878Z,19.21
2022-12-03T19:08:20.492Z,19.21
2022-12-03T19:10:53.396Z,19.21
2022-12-03T19:13:18.946Z,19.21
2022-12-03T19:15:45.501Z,19.21
2022-12-03T19:18:11.064Z,19.21
2022-12-03T19:20:38.740Z,19.21
2022-12-03T19:23:04.297Z,19.22
2022-12-03T19:25:29.836Z,19.21
2022-12-03T19:27:56.228Z,19.21
2022-12-03T19:30:21.788Z,19.21
2022-12-03T19:32:50.705Z,19.21
2022-12-03T19:35:16.971Z,19.20
2022-12-03T19:37:42.573Z,19.21
2022-12-03T19:40:09.390Z,19.21
2022-12-03T19:42:34.943Z,19.21
2022-12-03T19:45:00.485Z,19.21
2022-12-03T19:47:26.040Z,19.21
2022-12-03T19:49:52.194Z,19.21
2022-12-03T19:52:17.944Z,19.21
2022-12-03T19:54:43.488Z,19.20
2022-12-03T19:57:09.047Z,19.22
2022-12-03T19:59:34.593Z,19.21
2022-12-03T20:02:00.293Z,19.19
2022-12-03T20:04:25.959Z,19.19
2022-12-03T20:06:51.540Z,19.20
2022-12-03T20:09:17.129Z,19.20
2022-12-03T20:11:43.720Z,19.20
2022-12-03T20:14:10.502Z,19.21
2022-12-03T20:16:36.238Z,19.20
2022-12-03T20:19:02.895Z,19.20
2022-12-03T20:21:29.614Z,19.20
2022-12-03T20:23:55.163Z,19.19
2022-12-03T20:26:20.853Z,19.21
2022-12-03T20:28:47.518Z,19.21
2022-12-03T20:31:14.276Z,19.20
2022-12-03T20:33:41.053Z,19.21
2022-12-03T20:36:06.798Z,19.20
2022-12-03T20:38:32.614Z,19.20
2022-12-03T20:41:06.243Z,19.19
2022-12-03T20:43:31.849Z,19.20
2022-12-03T20:46:04.870Z,19.20
2022-12-03T20:48:30.469Z,19.20
2022-12-03T20:50:56.006Z,19.20
2022-12-03T20:53:25.581Z,19.21
2022-12-03T20:55:58.665Z,19.19
2022-12-03T20:58:24.260Z,19.19
2022-12-03T21:00:49.907Z,19.20
2022-12-03T21:03:15.496Z,19.19
2022-12-03T21:05:42.961Z,19.19
2022-12-03T21:08:08.934Z,19.19
2022-12-03T21:10:36.256Z,19.19
2022-12-03T21:13:01.849Z,19.20
2022-12-03T21:15:27.401Z,19.19
2022-12-03T21:17:53.023Z,19.20
2022-12-03T21:20:21.325Z,19.19
2022-12-03T21:22:48.757Z,19.19
2022-12-03T21:25:14.304Z,19.20
2022-12-03T21:27:39.860Z,19.19
2022-12-03T21:30:05.708Z,19.19
2022-12-03T21:32:31.260Z,19.19
2022-12-03T21:34:56.800Z,19.20
2022-12-03T21:37:22.357Z,19.20
2022-12-03T21:39:47.901Z,19.19
2022-12-03T21:42:34.777Z,19.20
2022-12-03T21:44:58.970Z,19.19
2022-12-03T21:47:24.590Z,19.20
2022-12-03T21:49:50.237Z,19.19
2022-12-03T21:52:15.788Z,19.20
2022-12-03T21:54:41.331Z,19.19
2022-12-03T21:57:06.909Z,19.19
2022-12-03T21:59:32.447Z,19.19
2022-12-03T22:01:58.019Z,19.20
2022-12-03T22:04:23.633Z,19.19
2022-12-03T22:06:49.189Z,19.20
2022-12-03T22:09:14.732Z,19.18
2022-12-03T22:11:40.284Z,19.19
2022-12-03T22:14:07.382Z,19.19
2022-12-03T22:16:32.969Z,19.19
2022-12-03T22:18:58.523Z,19.18
2022-12-03T22:21:24.994Z,19.19
2022-12-03T22:23:50.603Z,19.18
2022-12-03T22:26:16.659Z,19.19
2022-12-03T22:28:43.038Z,19.19
2022-12-03T22:31:08.767Z,19.19
2022-12-03T22:33:34.561Z,19.18
2022-12-03T22:36:00.965Z,19.19
2022-12-03T22:38:27.682Z,19.18
2022-12-03T22:40:53.254Z,19.20
2022-12-03T22:43:18.819Z,19.18
2022-12-03T22:45:44.370Z,19.19
2022-12-03T22:48:09.924Z,19.18
2022-12-03T22:50:50.867Z,19.19
2022-12-03T22:53:16.488Z,19.19
2022-12-03T22:55:42.029Z,19.18
2022-12-03T22:58:07.696Z,19.18
2022-12-03T23:00:35.195Z,19.18
2022-12-03T23:03:00.838Z,19.18
2022-12-03T23:05:29.660Z,19.18
2022-12-03T23:07:55.277Z,19.18
2022-12-03T23:10:20.898Z,19.19
2022-12-03T23:12:46.451Z,19.18
2022-12-03T23:15:11.992Z,19.19
2022-12-03T23:17:37.544Z,19.18
2022-12-03T23:20:03.188Z,19.18
2022-12-03T23:22:28.756Z,19.18
2022-12-03T23:24:54.333Z,19.19
2022-12-03T23:27:19.899Z,19.18
2022-12-03T23:29:45.446Z,19.17
2022-12-03T23:32:11.008Z,19.18
2022-12-03T23:34:36.662Z,19.18
2022-12-03T23:37:02.233Z,19.18
2022-12-03T23:39:27.790Z,19.18
2022-12-03T23:41:53.338Z,19.18
2022-12-03T23:44:18.893Z,19.18
2022-12-03T23:46:44.502Z,19.18
2022-12-03T23:49:10.128Z,19.18
2022-12-03T23:51:35.673Z,19.17
2022-12-03T23:54:01.224Z,19.18
2022-12-03T23:56:28.230Z,19.18
2022-12-03T23:58:53.866Z,19.18
